Maersk Regensburg — VREN6 — position and weather

sailwx.info

Track history (hours):
 
Tides and Currents Weather Stations Pressure Air Temp Water Temp Dewpoint Dewpoint Depression Visibility Wind Speed Wind Dir Waves Ship Positions

Maersk Regensburg

Last reported at 2018-May-31 13:53 UTC. Time now 2018-Jun-21 08:39 UTC.
Position N 27°17' W 014°16'.
Warning: this ship's position is 20 days out of date.

Length 148 m; draft 8.4 m.

Type: Cargo ship. MMSI: 477143400.

Date/timePositionNaut miles runAvg speedWind from/ knotsBaromVisibWave heightAir tempDewpointWater temp
2018-May-31 13:53N 27°17' W 014°16'3413.3
2018-May-31 11:18N 27°42' W 013°49'613.9
2018-May-31 10:51N 27°46' W 013°44'514.2
2018-May-31 10:30N 27°49' W 013°40'63813.8
2018-May-29 12:14N 35°57' W 005°35'313.0
2018-May-29 12:00N 35°57' W 005°31'4 0.3
2018-May-29 00:33N 35°54' W 005°30'3 2.5
2018-May-28 23:24N 35°55' W 005°33'1 2.4
2018-May-28 22:59N 35°54' W 005°33'1 0.8
2018-May-28 22:17N 35°54' W 005°34'2 0.5
2018-May-28 18:41N 35°52' W 005°35'1 7.5
2018-May-28 18:30N 35°53' W 005°34'4 7.9
2018-May-28 18:00N 35°57' W 005°33'4 7.2
2018-May-28 17:30N 35°59' W 005°29'3 5.2
2018-May-28 17:00N 35°60' W 005°26'3 5.3
2018-May-28 16:30N 36°02' W 005°24'4 8.0
2018-May-28 16:00N 36°06' W 005°24'3 6.5
2018-May-28 15:29N 36°09' W 005°26'0 0.3
2018-May-28 14:59N 36°09' W 005°26'0 0.0
2018-May-28 14:29N 36°09' W 005°26'0 0.0
2018-May-28 13:59N 36°09' W 005°26'0 0.0
2018-May-28 13:29N 36°09' W 005°26'0 0.0
2018-May-28 12:59N 36°09' W 005°26'0 0.0
2018-May-28 12:23N 36°09' W 005°26'0 0.0
2018-May-28 11:59N 36°09' W 005°26'0 0.0
2018-May-28 11:11N 36°09' W 005°26'0 0.0
2018-May-28 10:50N 36°09' W 005°26'0 0.0
2018-May-28 10:29N 36°09' W 005°26'0 0.0
2018-May-28 09:44N 36°09' W 005°26'0 0.0
2018-May-28 06:50N 36°09' W 005°26'0 0.0
2018-May-28 06:29N 36°09' W 005°26'0 0.0
2018-May-28 05:59N 36°09' W 005°26'0 0.0
2018-May-28 05:26N 36°09' W 005°26'0 0.0
2018-May-28 04:59N 36°09' W 005°26'0 0.0
2018-May-28 04:26N 36°09' W 005°26'0 0.0
2018-May-28 03:59N 36°09' W 005°26'0 0.0
2018-May-28 03:29N 36°09' W 005°26'0 0.0
2018-May-28 02:59N 36°09' W 005°26'0 0.0
2018-May-28 02:29N 36°09' W 005°26'0 0.0
2018-May-28 01:59N 36°09' W 005°26'0 0.0
2018-May-28 01:29N 36°09' W 005°26'0 0.0
2018-May-28 00:59N 36°09' W 005°26'0 0.0
2018-May-28 00:29N 36°09' W 005°26'0 0.0
2018-May-27 23:59N 36°09' W 005°26'0 0.0
2018-May-27 23:30N 36°09' W 005°26'2 3.9
2018-May-27 23:00N 36°08' W 005°24'0 1.0
2018-May-27 22:30N 36°08' W 005°24'1 1.9
2018-May-27 22:00N 36°07' W 005°23'1 2.7
2018-May-27 21:30N 36°06' W 005°23'3 6.0
2018-May-27 21:00N 36°03' W 005°21'3 6.6
2018-May-27 20:30N 36°04' W 005°17'3 5.3
2018-May-27 20:00N 36°04' W 005°14'0 0.5
2018-May-27 19:30N 36°05' W 005°14'2 3.1
2018-May-27 19:00N 36°04' W 005°15'2 4.7
2018-May-27 18:30N 36°03' W 005°18'0 0.7
2018-May-27 18:00N 36°03' W 005°18'1 1.8
2018-May-27 17:31N 36°03' W 005°17'4 7.5
2018-May-27 17:00N 35°60' W 005°18'5 9.8
2018-May-27 16:30N 35°58' W 005°24'611.1
2018-May-27 16:00N 35°56' W 005°30'1110.6
2018-May-27 14:59N 35°54' W 005°43'611.2
2018-May-27 14:27N 35°53' W 005°51'  
Track history (hours):
 
Tides and Currents Weather Stations Pressure Air Temp Water Temp Dewpoint Dewpoint Depression Visibility Wind Speed Wind Dir Waves Ship Positions

Maersk Regensburg

Last reported at 2018-May-31 13:53 UTC. Time now 2018-Jun-21 08:39 UTC.
Position N 27°17' W 014°16'.
Warning: this ship's position is 20 days out of date.

Length 148 m; draft 8.4 m.

Type: Cargo ship. MMSI: 477143400.

Date/timePositionNaut miles runAvg speedWind from/ knotsBaromVisibWave heightAir tempDewpointWater temp
2018-May-31 13:53N 27°17' W 014°16'3413.3
2018-May-31 11:18N 27°42' W 013°49'613.9
2018-May-31 10:51N 27°46' W 013°44'514.2
2018-May-31 10:30N 27°49' W 013°40'63813.8
2018-May-29 12:14N 35°57' W 005°35'313.0
2018-May-29 12:00N 35°57' W 005°31'4 0.3
2018-May-29 00:33N 35°54' W 005°30'3 2.5
2018-May-28 23:24N 35°55' W 005°33'1 2.4
2018-May-28 22:59N 35°54' W 005°33'1 0.8
2018-May-28 22:17N 35°54' W 005°34'2 0.5
2018-May-28 18:41N 35°52' W 005°35'1 7.5
2018-May-28 18:30N 35°53' W 005°34'4 7.9
2018-May-28 18:00N 35°57' W 005°33'4 7.2
2018-May-28 17:30N 35°59' W 005°29'3 5.2
2018-May-28 17:00N 35°60' W 005°26'3 5.3
2018-May-28 16:30N 36°02' W 005°24'4 8.0
2018-May-28 16:00N 36°06' W 005°24'3 6.5
2018-May-28 15:29N 36°09' W 005°26'0 0.3
2018-May-28 14:59N 36°09' W 005°26'0 0.0
2018-May-28 14:29N 36°09' W 005°26'0 0.0
2018-May-28 13:59N 36°09' W 005°26'0 0.0
2018-May-28 13:29N 36°09' W 005°26'0 0.0
2018-May-28 12:59N 36°09' W 005°26'0 0.0
2018-May-28 12:23N 36°09' W 005°26'0 0.0
2018-May-28 11:59N 36°09' W 005°26'0 0.0
2018-May-28 11:11N 36°09' W 005°26'0 0.0
2018-May-28 10:50N 36°09' W 005°26'0 0.0
2018-May-28 10:29N 36°09' W 005°26'0 0.0
2018-May-28 09:44N 36°09' W 005°26'0 0.0
2018-May-28 06:50N 36°09' W 005°26'0 0.0
2018-May-28 06:29N 36°09' W 005°26'0 0.0
2018-May-28 05:59N 36°09' W 005°26'0 0.0
2018-May-28 05:26N 36°09' W 005°26'0 0.0
2018-May-28 04:59N 36°09' W 005°26'0 0.0
2018-May-28 04:26N 36°09' W 005°26'0 0.0
2018-May-28 03:59N 36°09' W 005°26'0 0.0
2018-May-28 03:29N 36°09' W 005°26'0 0.0
2018-May-28 02:59N 36°09' W 005°26'0 0.0
2018-May-28 02:29N 36°09' W 005°26'0 0.0
2018-May-28 01:59N 36°09' W 005°26'0 0.0
2018-May-28 01:29N 36°09' W 005°26'0 0.0
2018-May-28 00:59N 36°09' W 005°26'0 0.0
2018-May-28 00:29N 36°09' W 005°26'0 0.0
2018-May-27 23:59N 36°09' W 005°26'0 0.0
2018-May-27 23:30N 36°09' W 005°26'2 3.9
2018-May-27 23:00N 36°08' W 005°24'0 1.0
2018-May-27 22:30N 36°08' W 005°24'1 1.9
2018-May-27 22:00N 36°07' W 005°23'1 2.7
2018-May-27 21:30N 36°06' W 005°23'3 6.0
2018-May-27 21:00N 36°03' W 005°21'3 6.6
2018-May-27 20:30N 36°04' W 005°17'3 5.3
2018-May-27 20:00N 36°04' W 005°14'0 0.5
2018-May-27 19:30N 36°05' W 005°14'2 3.1
2018-May-27 19:00N 36°04' W 005°15'2 4.7
2018-May-27 18:30N 36°03' W 005°18'0 0.7
2018-May-27 18:00N 36°03' W 005°18'1 1.8
2018-May-27 17:31N 36°03' W 005°17'4 7.5
2018-May-27 17:00N 35°60' W 005°18'5 9.8
2018-May-27 16:30N 35°58' W 005°24'611.1
2018-May-27 16:00N 35°56' W 005°30'1110.6
2018-May-27 14:59N 35°54' W 005°43'611.2
2018-May-27 14:27N 35°53' W 005°51'  

Dump ship's entire track history